sensor_id;sensor_type;location;lat;lon;timestamp;pressure;altitude;pressure_sealevel;temperature;humidity
60817;BME280;51921;51.518;-3.188;2022-12-07T00:00:19;102184.29;;;3.74;71.30
60817;BME280;51921;51.518;-3.188;2022-12-07T00:02:44;102183.32;;;3.72;72.57
60817;BME280;51921;51.518;-3.188;2022-12-07T00:05:09;102183.88;;;4.25;68.47
60817;BME280;51921;51.518;-3.188;2022-12-07T00:07:35;102182.95;;;2.35;75.90
60817;BME280;51921;51.518;-3.188;2022-12-07T00:10:00;102181.20;;;3.40;72.88
60817;BME280;51921;51.518;-3.188;2022-12-07T00:12:26;102183.66;;;1.11;78.14
60817;BME280;51921;51.518;-3.188;2022-12-07T00:14:52;102187.98;;;0.71;94.61
60817;BME280;51921;51.518;-3.188;2022-12-07T00:17:17;102182.31;;;2.72;81.80
60817;BME280;51921;51.518;-3.188;2022-12-07T00:19:42;102186.76;;;0.88;86.34
60817;BME280;51921;51.518;-3.188;2022-12-07T00:22:08;102180.59;;;-0.05;96.32
60817;BME280;51921;51.518;-3.188;2022-12-07T00:24:33;102179.83;;;1.43;91.00
60817;BME280;51921;51.518;-3.188;2022-12-07T00:26:58;102174.12;;;1.56;84.54
60817;BME280;51921;51.518;-3.188;2022-12-07T00:29:24;102166.53;;;2.21;81.52
60817;BME280;51921;51.518;-3.188;2022-12-07T00:31:49;102164.82;;;2.62;78.81
60817;BME280;51921;51.518;-3.188;2022-12-07T00:34:16;102167.66;;;2.71;77.54
60817;BME280;51921;51.518;-3.188;2022-12-07T00:36:40;102162.70;;;1.65;84.95
60817;BME280;51921;51.518;-3.188;2022-12-07T00:39:05;102163.76;;;2.64;78.44
60817;BME280;51921;51.518;-3.188;2022-12-07T00:41:30;102163.86;;;2.58;76.95
60817;BME280;51921;51.518;-3.188;2022-12-07T00:43:56;102160.27;;;2.64;75.78
60817;BME280;51921;51.518;-3.188;2022-12-07T00:46:22;102161.49;;;2.25;76.20
60817;BME280;51921;51.518;-3.188;2022-12-07T00:48:48;102157.66;;;2.37;76.32
60817;BME280;51921;51.518;-3.188;2022-12-07T00:51:14;102152.52;;;3.14;73.98
60817;BME280;51921;51.518;-3.188;2022-12-07T00:53:39;102156.64;;;5.29;67.21
60817;BME280;51921;51.518;-3.188;2022-12-07T00:56:05;102155.35;;;3.27;71.61
60817;BME280;51921;51.518;-3.188;2022-12-07T00:58:28;102162.06;;;0.51;81.52
60817;BME280;51921;51.518;-3.188;2022-12-07T01:00:54;102160.18;;;1.23;83.28
60817;BME280;51921;51.518;-3.188;2022-12-07T01:03:19;102157.56;;;0.29;83.92
60817;BME280;51921;51.518;-3.188;2022-12-07T01:05:50;102158.42;;;-0.17;91.18
60817;BME280;51921;51.518;-3.188;2022-12-07T01:08:10;102158.19;;;0.79;89.54
60817;BME280;51921;51.518;-3.188;2022-12-07T01:10:35;102149.96;;;2.70;80.12
60817;BME280;51921;51.518;-3.188;2022-12-07T01:13:01;102150.98;;;0.15;88.99
60817;BME280;51921;51.518;-3.188;2022-12-07T01:15:26;102151.50;;;1.51;82.87
60817;BME280;51921;51.518;-3.188;2022-12-07T01:17:51;102149.00;;;-0.23;97.18
60817;BME280;51921;51.518;-3.188;2022-12-07T01:20:17;102148.62;;;-0.89;92.91
60817;BME280;51921;51.518;-3.188;2022-12-07T01:22:43;102149.40;;;0.14;96.26
60817;BME280;51921;51.518;-3.188;2022-12-07T01:25:10;102148.48;;;1.99;85.93
60817;BME280;51921;51.518;-3.188;2022-12-07T01:27:34;102144.59;;;2.00;82.78
60817;BME280;51921;51.518;-3.188;2022-12-07T01:29:59;102142.80;;;2.07;79.58
60817;BME280;51921;51.518;-3.188;2022-12-07T01:32:24;102144.02;;;1.35;81.11
60817;BME280;51921;51.518;-3.188;2022-12-07T01:34:50;102140.49;;;2.08;78.95
60817;BME280;51921;51.518;-3.188;2022-12-07T01:37:15;102142.83;;;2.95;75.55
60817;BME280;51921;51.518;-3.188;2022-12-07T01:39:41;102141.28;;;4.48;69.58
60817;BME280;51921;51.518;-3.188;2022-12-07T01:42:09;102142.82;;;3.49;69.46
60817;BME280;51921;51.518;-3.188;2022-12-07T01:44:31;102141.98;;;2.10;74.47
60817;BME280;51921;51.518;-3.188;2022-12-07T01:46:58;102140.12;;;1.87;76.42
60817;BME280;51921;51.518;-3.188;2022-12-07T01:49:28;102139.97;;;1.64;75.31
60817;BME280;51921;51.518;-3.188;2022-12-07T01:51:49;102138.80;;;2.21;74.80
60817;BME280;51921;51.518;-3.188;2022-12-07T01:54:14;102137.71;;;2.30;72.84
60817;BME280;51921;51.518;-3.188;2022-12-07T01:56:40;102143.29;;;0.58;80.42
60817;BME280;51921;51.518;-3.188;2022-12-07T01:59:04;102145.03;;;1.40;75.77
60817;BME280;51921;51.518;-3.188;2022-12-07T02:01:30;102142.14;;;0.20;81.31
60817;BME280;51921;51.518;-3.188;2022-12-07T02:03:55;102143.51;;;0.19;78.66
60817;BME280;51921;51.518;-3.188;2022-12-07T02:06:23;102139.47;;;1.41;77.88
60817;BME280;51921;51.518;-3.188;2022-12-07T02:08:47;102134.08;;;2.73;73.31
60817;BME280;51921;51.518;-3.188;2022-12-07T02:11:12;102132.76;;;1.47;75.93
60817;BME280;51921;51.518;-3.188;2022-12-07T02:13:40;102133.03;;;1.73;74.99
60817;BME280;51921;51.518;-3.188;2022-12-07T02:16:10;102137.37;;;0.77;78.44
60817;BME280;51921;51.518;-3.188;2022-12-07T02:18:39;102132.90;;;1.97;73.92
60817;BME280;51921;51.518;-3.188;2022-12-07T02:20:59;102132.29;;;2.02;73.24
60817;BME280;51921;51.518;-3.188;2022-12-07T02:25:55;102129.68;;;1.96;72.34
60817;BME280;51921;51.518;-3.188;2022-12-07T02:28:18;102137.16;;;1.16;75.04
60817;BME280;51921;51.518;-3.188;2022-12-07T02:30:40;102135.97;;;2.05;73.52
60817;BME280;51921;51.518;-3.188;2022-12-07T02:33:04;102137.79;;;0.98;77.34
60817;BME280;51921;51.518;-3.188;2022-12-07T02:35:32;102134.23;;;2.81;70.73
60817;BME280;51921;51.518;-3.188;2022-12-07T02:37:59;102134.09;;;2.54;66.71
60817;BME280;51921;51.518;-3.188;2022-12-07T02:40:20;102134.80;;;-1.18;83.53
60817;BME280;51921;51.518;-3.188;2022-12-07T02:42:46;102139.12;;;0.01;81.86
60817;BME280;51921;51.518;-3.188;2022-12-07T02:45:12;102137.70;;;2.81;70.72
60817;BME280;51921;51.518;-3.188;2022-12-07T02:47:36;102137.76;;;3.56;66.55
60817;BME280;51921;51.518;-3.188;2022-12-07T02:50:03;102137.88;;;1.26;71.01
60817;BME280;51921;51.518;-3.188;2022-12-07T02:52:26;102137.54;;;0.45;78.34
60817;BME280;51921;51.518;-3.188;2022-12-07T02:54:52;102134.61;;;0.41;78.46
60817;BME280;51921;51.518;-3.188;2022-12-07T02:57:30;102136.66;;;0.61;77.76
60817;BME280;51921;51.518;-3.188;2022-12-07T02:59:52;102136.11;;;1.02;76.21
60817;BME280;51921;51.518;-3.188;2022-12-07T03:02:23;102136.12;;;1.52;74.30
60817;BME280;51921;51.518;-3.188;2022-12-07T03:04:41;102136.57;;;0.94;74.62
60817;BME280;51921;51.518;-3.188;2022-12-07T03:07:04;102135.18;;;0.69;75.58
60817;BME280;51921;51.518;-3.188;2022-12-07T03:09:28;102127.64;;;1.98;70.04
60817;BME280;51921;51.518;-3.188;2022-12-07T03:11:52;102131.42;;;1.03;71.96
60817;BME280;51921;51.518;-3.188;2022-12-07T03:14:20;102126.95;;;1.35;71.19
60817;BME280;51921;51.518;-3.188;2022-12-07T03:16:45;102125.58;;;-0.67;79.69
60817;BME280;51921;51.518;-3.188;2022-12-07T03:19:09;102123.96;;;0.08;77.14
60817;BME280;51921;51.518;-3.188;2022-12-07T03:21:36;102124.14;;;-0.63;82.17
60817;BME280;51921;51.518;-3.188;2022-12-07T03:24:02;102122.23;;;0.63;78.23
60817;BME280;51921;51.518;-3.188;2022-12-07T03:26:28;102123.59;;;0.32;76.80
60817;BME280;51921;51.518;-3.188;2022-12-07T03:28:53;102122.77;;;-2.13;88.30
60817;BME280;51921;51.518;-3.188;2022-12-07T03:31:18;102124.29;;;-0.68;90.68
60817;BME280;51921;51.518;-3.188;2022-12-07T03:33:47;102125.55;;;-2.25;93.48
60817;BME280;51921;51.518;-3.188;2022-12-07T03:36:10;102120.43;;;-0.69;92.57
60817;BME280;51921;51.518;-3.188;2022-12-07T03:38:36;102113.44;;;-0.14;86.39
60817;BME280;51921;51.518;-3.188;2022-12-07T03:41:01;102114.72;;;-0.19;83.08
60817;BME280;51921;51.518;-3.188;2022-12-07T03:43:23;102122.93;;;1.41;75.72
60817;BME280;51921;51.518;-3.188;2022-12-07T03:45:56;102124.38;;;0.05;79.91
60817;BME280;51921;51.518;-3.188;2022-12-07T03:48:20;102123.19;;;2.86;68.00
60817;BME280;51921;51.518;-3.188;2022-12-07T03:50:45;102124.92;;;0.23;76.71
60817;BME280;51921;51.518;-3.188;2022-12-07T03:53:11;102121.92;;;0.73;77.05
60817;BME280;51921;51.518;-3.188;2022-12-07T03:55:34;102122.12;;;1.00;76.49
60817;BME280;51921;51.518;-3.188;2022-12-07T03:57:59;102118.71;;;0.98;75.24
60817;BME280;51921;51.518;-3.188;2022-12-07T04:00:23;102116.88;;;1.23;75.02
60817;BME280;51921;51.518;-3.188;2022-12-07T04:02:51;102110.59;;;2.55;71.55
60817;BME280;51921;51.518;-3.188;2022-12-07T04:05:14;102108.62;;;1.91;70.29
60817;BME280;51921;51.518;-3.188;2022-12-07T04:07:40;102110.30;;;0.32;73.36
60817;BME280;51921;51.518;-3.188;2022-12-07T04:10:06;102110.31;;;-1.20;85.51
60817;BME280;51921;51.518;-3.188;2022-12-07T04:12:31;102109.88;;;-2.73;93.00
60817;BME280;51921;51.518;-3.188;2022-12-07T04:14:57;102109.19;;;-2.84;100.00
60817;BME280;51921;51.518;-3.188;2022-12-07T04:17:22;102106.50;;;-2.21;99.01
60817;BME280;51921;51.518;-3.188;2022-12-07T04:19:48;102105.34;;;-0.92;92.12
60817;BME280;51921;51.518;-3.188;2022-12-07T04:22:14;102104.60;;;-1.54;87.80
60817;BME280;51921;51.518;-3.188;2022-12-07T04:24:39;102101.42;;;-1.77;90.55
60817;BME280;51921;51.518;-3.188;2022-12-07T04:27:05;102097.49;;;-1.88;91.28
60817;BME280;51921;51.518;-3.188;2022-12-07T04:29:31;102096.83;;;0.05;84.35
60817;BME280;51921;51.518;-3.188;2022-12-07T04:32:02;102099.94;;;1.42;76.76
60817;BME280;51921;51.518;-3.188;2022-12-07T04:34:22;102099.92;;;1.20;74.48
60817;BME280;51921;51.518;-3.188;2022-12-07T04:36:48;102096.08;;;-0.14;78.67
60817;BME280;51921;51.518;-3.188;2022-12-07T04:39:19;102092.12;;;-0.01;77.04
60817;BME280;51921;51.518;-3.188;2022-12-07T04:41:39;102091.64;;;-1.71;84.79
60817;BME280;51921;51.518;-3.188;2022-12-07T04:44:05;102087.43;;;-1.19;84.00
60817;BME280;51921;51.518;-3.188;2022-12-07T04:46:31;102090.76;;;-3.11;91.38
60817;BME280;51921;51.518;-3.188;2022-12-07T04:48:57;102094.86;;;-4.13;100.00
60817;BME280;51921;51.518;-3.188;2022-12-07T04:51:24;102091.56;;;-3.18;100.00
60817;BME280;51921;51.518;-3.188;2022-12-07T04:53:48;102084.92;;;-1.59;100.00
60817;BME280;51921;51.518;-3.188;2022-12-07T04:56:14;102084.61;;;-0.41;90.77
60817;BME280;51921;51.518;-3.188;2022-12-07T04:58:39;102080.05;;;-0.59;87.62
60817;BME280;51921;51.518;-3.188;2022-12-07T05:01:05;102084.96;;;0.47;83.13
60817;BME280;51921;51.518;-3.188;2022-12-07T05:03:30;102079.69;;;0.81;80.44
60817;BME280;51921;51.518;-3.188;2022-12-07T05:05:56;102078.49;;;0.19;80.62
60817;BME280;51921;51.518;-3.188;2022-12-07T05:08:22;102079.43;;;-3.06;93.05
60817;BME280;51921;51.518;-3.188;2022-12-07T05:10:48;102081.47;;;-3.13;100.00
60817;BME280;51921;51.518;-3.188;2022-12-07T05:13:14;102079.16;;;-2.73;100.00
60817;BME280;51921;51.518;-3.188;2022-12-07T05:15:39;102079.04;;;-2.52;100.00
60817;BME280;51921;51.518;-3.188;2022-12-07T05:18:05;102074.37;;;-0.39;97.14
60817;BME280;51921;51.518;-3.188;2022-12-07T05:20:30;102076.08;;;0.09;87.18
60817;BME280;51921;51.518;-3.188;2022-12-07T05:22:56;102079.94;;;0.24;83.62
60817;BME280;51921;51.518;-3.188;2022-12-07T05:25:22;102085.18;;;0.29;82.54
60817;BME280;51921;51.518;-3.188;2022-12-07T05:27:47;102083.19;;;0.73;79.88
60817;BME280;51921;51.518;-3.188;2022-12-07T05:30:13;102083.81;;;-0.32;80.43
60817;BME280;51921;51.518;-3.188;2022-12-07T05:32:38;102087.83;;;0.44;79.57
60817;BME280;51921;51.518;-3.188;2022-12-07T05:35:05;102084.87;;;0.75;77.67
60817;BME280;51921;51.518;-3.188;2022-12-07T05:37:30;102088.49;;;1.05;76.21
60817;BME280;51921;51.518;-3.188;2022-12-07T05:39:55;102087.08;;;0.86;77.26
60817;BME280;51921;51.518;-3.188;2022-12-07T05:42:21;102087.86;;;1.19;75.20
60817;BME280;51921;51.518;-3.188;2022-12-07T05:44:47;102090.43;;;0.46;77.86
60817;BME280;51921;51.518;-3.188;2022-12-07T05:47:14;102086.27;;;0.51;75.35
60817;BME280;51921;51.518;-3.188;2022-12-07T05:49:38;102083.24;;;0.54;76.05
60817;BME280;51921;51.518;-3.188;2022-12-07T05:52:04;102081.82;;;0.81;74.14
60817;BME280;51921;51.518;-3.188;2022-12-07T05:54:29;102081.31;;;0.68;73.82
60817;BME280;51921;51.518;-3.188;2022-12-07T05:56:55;102082.72;;;-2.42;90.86
60817;BME280;51921;51.518;-3.188;2022-12-07T05:59:21;102084.63;;;-2.18;91.64
60817;BME280;51921;51.518;-3.188;2022-12-07T06:01:46;102087.18;;;-2.75;94.71
60817;BME280;51921;51.518;-3.188;2022-12-07T06:04:19;102083.09;;;-1.18;90.31
60817;BME280;51921;51.518;-3.188;2022-12-07T06:06:38;102082.38;;;0.46;79.93
60817;BME280;51921;51.518;-3.188;2022-12-07T06:09:04;102079.82;;;0.39;79.71
60817;BME280;51921;51.518;-3.188;2022-12-07T06:11:29;102077.92;;;-0.33;80.80
60817;BME280;51921;51.518;-3.188;2022-12-07T06:13:55;102076.46;;;0.30;77.95
60817;BME280;51921;51.518;-3.188;2022-12-07T06:16:20;102080.40;;;0.12;77.11
60817;BME280;51921;51.518;-3.188;2022-12-07T06:18:46;102083.43;;;0.50;77.24
60817;BME280;51921;51.518;-3.188;2022-12-07T06:21:12;102083.27;;;-0.05;76.78
60817;BME280;51921;51.518;-3.188;2022-12-07T06:23:37;102084.76;;;0.56;77.78
60817;BME280;51921;51.518;-3.188;2022-12-07T06:26:03;102083.39;;;0.28;75.41
60817;BME280;51921;51.518;-3.188;2022-12-07T06:28:29;102083.98;;;0.64;75.06
60817;BME280;51921;51.518;-3.188;2022-12-07T06:30:57;102080.55;;;0.31;75.41
60817;BME280;51921;51.518;-3.188;2022-12-07T06:33:20;102079.40;;;0.28;73.80
60817;BME280;51921;51.518;-3.188;2022-12-07T06:35:46;102081.91;;;0.03;75.69
60817;BME280;51921;51.518;-3.188;2022-12-07T06:38:12;102085.66;;;0.39;73.98
60817;BME280;51921;51.518;-3.188;2022-12-07T06:40:37;102085.84;;;-0.22;75.34
60817;BME280;51921;51.518;-3.188;2022-12-07T06:43:03;102089.15;;;0.47;73.08
60817;BME280;51921;51.518;-3.188;2022-12-07T06:45:29;102092.49;;;0.70;73.51
60817;BME280;51921;51.518;-3.188;2022-12-07T06:47:54;102086.75;;;0.61;71.93
60817;BME280;51921;51.518;-3.188;2022-12-07T06:50:20;102086.93;;;0.43;72.31
60817;BME280;51921;51.518;-3.188;2022-12-07T06:52:46;102082.97;;;-0.45;74.61
60817;BME280;51921;51.518;-3.188;2022-12-07T06:55:11;102081.31;;;-0.66;75.29
60817;BME280;51921;51.518;-3.188;2022-12-07T06:57:37;102082.41;;;-1.00;76.91
60817;BME280;51921;51.518;-3.188;2022-12-07T07:00:04;102084.56;;;-0.70;76.15
60817;BME280;51921;51.518;-3.188;2022-12-07T07:02:28;102083.12;;;-0.52;76.46
60817;BME280;51921;51.518;-3.188;2022-12-07T07:04:54;102087.43;;;0.62;74.35
60817;BME280;51921;51.518;-3.188;2022-12-07T07:07:19;102085.83;;;-0.76;76.37
60817;BME280;51921;51.518;-3.188;2022-12-07T07:09:45;102087.30;;;-0.22;74.20
60817;BME280;51921;51.518;-3.188;2022-12-07T07:12:11;102091.70;;;0.03;74.29
60817;BME280;51921;51.518;-3.188;2022-12-07T07:14:36;102097.20;;;0.46;73.00
60817;BME280;51921;51.518;-3.188;2022-12-07T07:17:02;102094.33;;;1.77;68.60
60817;BME280;51921;51.518;-3.188;2022-12-07T07:19:28;102096.89;;;0.29;70.52
60817;BME280;51921;51.518;-3.188;2022-12-07T07:21:53;102091.52;;;-0.15;71.41
60817;BME280;51921;51.518;-3.188;2022-12-07T07:24:19;102094.66;;;0.65;70.09
60817;BME280;51921;51.518;-3.188;2022-12-07T07:26:44;102096.12;;;0.25;72.17
60817;BME280;51921;51.518;-3.188;2022-12-07T07:29:10;102094.78;;;-0.21;74.47
60817;BME280;51921;51.518;-3.188;2022-12-07T07:31:36;102092.83;;;-0.26;73.18
60817;BME280;51921;51.518;-3.188;2022-12-07T07:34:01;102093.95;;;-0.18;72.61
60817;BME280;51921;51.518;-3.188;2022-12-07T07:36:27;102091.90;;;-0.62;73.16
60817;BME280;51921;51.518;-3.188;2022-12-07T07:38:52;102094.08;;;0.46;71.66
60817;BME280;51921;51.518;-3.188;2022-12-07T07:41:18;102091.26;;;-0.23;72.96
60817;BME280;51921;51.518;-3.188;2022-12-07T07:43:44;102085.34;;;-0.35;74.58
60817;BME280;51921;51.518;-3.188;2022-12-07T07:46:09;102086.50;;;-0.82;74.57
60817;BME280;51921;51.518;-3.188;2022-12-07T07:48:35;102087.72;;;-0.08;74.23
60817;BME280;51921;51.518;-3.188;2022-12-07T07:51:04;102085.07;;;-0.89;74.39
60817;BME280;51921;51.518;-3.188;2022-12-07T07:53:26;102086.52;;;0.66;70.95
60817;BME280;51921;51.518;-3.188;2022-12-07T07:55:52;102086.98;;;-0.11;71.39
60817;BME280;51921;51.518;-3.188;2022-12-07T07:58:18;102086.70;;;-0.22;73.91
60817;BME280;51921;51.518;-3.188;2022-12-07T08:00:43;102088.72;;;-0.39;73.40
60817;BME280;51921;51.518;-3.188;2022-12-07T08:03:09;102095.56;;;-0.39;73.12
60817;BME280;51921;51.518;-3.188;2022-12-07T08:05:36;102100.11;;;-0.17;72.71
60817;BME280;51921;51.518;-3.188;2022-12-07T08:08:00;102097.89;;;-0.42;73.86
60817;BME280;51921;51.518;-3.188;2022-12-07T08:10:26;102096.91;;;-0.34;72.80
60817;BME280;51921;51.518;-3.188;2022-12-07T08:12:52;102099.14;;;-0.53;72.50
60817;BME280;51921;51.518;-3.188;2022-12-07T08:15:17;102104.52;;;-2.80;80.58
60817;BME280;51921;51.518;-3.188;2022-12-07T08:17:43;102103.77;;;-1.42;80.84
60817;BME280;51921;51.518;-3.188;2022-12-07T08:20:09;102100.82;;;-0.81;77.85
60817;BME280;51921;51.518;-3.188;2022-12-07T08:22:34;102103.91;;;-0.26;76.29
60817;BME280;51921;51.518;-3.188;2022-12-07T08:25:01;102106.15;;;0.43;73.67
60817;BME280;51921;51.518;-3.188;2022-12-07T08:27:26;102109.94;;;0.04;72.21
60817;BME280;51921;51.518;-3.188;2022-12-07T08:29:51;102112.54;;;-0.07;73.67
60817;BME280;51921;51.518;-3.188;2022-12-07T08:32:17;102114.73;;;-0.99;77.77
60817;BME280;51921;51.518;-3.188;2022-12-07T08:34:43;102115.10;;;-1.77;77.98
60817;BME280;51921;51.518;-3.188;2022-12-07T08:37:08;102107.34;;;-0.70;76.92
60817;BME280;51921;51.518;-3.188;2022-12-07T08:39:34;102108.28;;;-0.35;75.19
60817;BME280;51921;51.518;-3.188;2022-12-07T08:41:59;102115.26;;;0.53;72.12
60817;BME280;51921;51.518;-3.188;2022-12-07T08:44:25;102109.49;;;0.51;73.28
60817;BME280;51921;51.518;-3.188;2022-12-07T08:46:53;102110.10;;;0.37;72.00
60817;BME280;51921;51.518;-3.188;2022-12-07T08:49:19;102109.96;;;0.48;70.43
60817;BME280;51921;51.518;-3.188;2022-12-07T08:51:42;102100.25;;;-0.21;72.40
60817;BME280;51921;51.518;-3.188;2022-12-07T08:54:10;102098.72;;;0.71;70.25
60817;BME280;51921;51.518;-3.188;2022-12-07T08:56:34;102100.60;;;0.70;71.19
60817;BME280;51921;51.518;-3.188;2022-12-07T08:58:59;102098.90;;;0.95;70.09
60817;BME280;51921;51.518;-3.188;2022-12-07T09:01:25;102094.23;;;0.88;69.75
60817;BME280;51921;51.518;-3.188;2022-12-07T09:03:50;102095.93;;;0.86;71.27
60817;BME280;51921;51.518;-3.188;2022-12-07T09:06:16;102099.01;;;1.27;69.88
60817;BME280;51921;51.518;-3.188;2022-12-07T09:08:43;102100.97;;;0.82;71.69
60817;BME280;51921;51.518;-3.188;2022-12-07T09:11:07;102102.95;;;0.32;73.94
60817;BME280;51921;51.518;-3.188;2022-12-07T09:13:32;102108.93;;;1.04;72.53
60817;BME280;51921;51.518;-3.188;2022-12-07T09:15:57;102104.26;;;0.56;74.60
60817;BME280;51921;51.518;-3.188;2022-12-07T09:18:23;102103.48;;;0.63;73.86
60817;BME280;51921;51.518;-3.188;2022-12-07T09:20:49;102100.22;;;-0.10;75.33
60817;BME280;51921;51.518;-3.188;2022-12-07T09:23:14;102101.54;;;0.10;75.12
60817;BME280;51921;51.518;-3.188;2022-12-07T09:25:40;102098.13;;;0.99;73.97
60817;BME280;51921;51.518;-3.188;2022-12-07T09:28:06;102094.95;;;1.03;74.12
60817;BME280;51921;51.518;-3.188;2022-12-07T09:30:31;102090.30;;;1.82;71.37
60817;BME280;51921;51.518;-3.188;2022-12-07T09:32:57;102094.57;;;1.56;72.40
60817;BME280;51921;51.518;-3.188;2022-12-07T09:35:23;102091.82;;;2.42;69.80
60817;BME280;51921;51.518;-3.188;2022-12-07T09:37:48;102091.62;;;3.32;65.93
60817;BME280;51921;51.518;-3.188;2022-12-07T09:40:14;102085.77;;;4.41;62.73
60817;BME280;51921;51.518;-3.188;2022-12-07T09:42:41;102088.83;;;2.53;67.41
60817;BME280;51921;51.518;-3.188;2022-12-07T09:45:06;102088.44;;;2.32;68.17
60817;BME280;51921;51.518;-3.188;2022-12-07T09:47:30;102089.22;;;3.01;67.45
60817;BME280;51921;51.518;-3.188;2022-12-07T09:50:00;102083.24;;;2.06;68.47
60817;BME280;51921;51.518;-3.188;2022-12-07T09:52:26;102078.41;;;2.38;68.49
60817;BME280;51921;51.518;-3.188;2022-12-07T09:54:49;102080.41;;;3.07;68.10
60817;BME280;51921;51.518;-3.188;2022-12-07T09:57:12;102078.26;;;2.23;69.51
60817;BME280;51921;51.518;-3.188;2022-12-07T09:59:37;102080.75;;;2.75;70.19
60817;BME280;51921;51.518;-3.188;2022-12-07T10:04:28;102071.54;;;3.00;69.04
60817;BME280;51921;51.518;-3.188;2022-12-07T10:06:53;102073.11;;;2.93;69.43
60817;BME280;51921;51.518;-3.188;2022-12-07T10:09:21;102070.93;;;3.02;71.27
60817;BME280;51921;51.518;-3.188;2022-12-07T10:11:58;102068.27;;;3.71;69.25
60817;BME280;51921;51.518;-3.188;2022-12-07T10:14:12;102067.58;;;3.12;69.87
60817;BME280;51921;51.518;-3.188;2022-12-07T10:16:40;102063.45;;;4.03;68.56
60817;BME280;51921;51.518;-3.188;2022-12-07T10:21:27;102058.73;;;3.20;68.43
60817;BME280;51921;51.518;-3.188;2022-12-07T10:24:02;102061.89;;;4.05;66.46
60817;BME280;51921;51.518;-3.188;2022-12-07T10:26:26;102064.19;;;3.72;66.72
60817;BME280;51921;51.518;-3.188;2022-12-07T10:28:43;102064.23;;;4.28;65.17
60817;BME280;51921;51.518;-3.188;2022-12-07T10:31:15;102062.64;;;4.12;65.95
60817;BME280;51921;51.518;-3.188;2022-12-07T10:33:36;102062.65;;;3.69;66.93
60817;BME280;51921;51.518;-3.188;2022-12-07T10:36:15;102060.72;;;4.26;65.62
60817;BME280;51921;51.518;-3.188;2022-12-07T10:38:27;102060.45;;;4.26;64.79
60817;BME280;51921;51.518;-3.188;2022-12-07T10:41:03;102057.36;;;4.13;66.06
60817;BME280;51921;51.518;-3.188;2022-12-07T10:43:18;102059.04;;;4.53;63.84
60817;BME280;51921;51.518;-3.188;2022-12-07T10:48:13;102054.23;;;4.62;61.76
60817;BME280;51921;51.518;-3.188;2022-12-07T10:50:49;102054.66;;;4.47;62.02
60817;BME280;51921;51.518;-3.188;2022-12-07T10:55:29;102042.23;;;5.21;62.68
60817;BME280;51921;51.518;-3.188;2022-12-07T10:58:00;102040.42;;;5.95;60.53
60817;BME280;51921;51.518;-3.188;2022-12-07T11:00:18;102037.32;;;5.30;60.87
60817;BME280;51921;51.518;-3.188;2022-12-07T11:02:52;102034.04;;;4.97;60.64
60817;BME280;51921;51.518;-3.188;2022-12-07T11:05:15;102034.95;;;4.76;61.77
60817;BME280;51921;51.518;-3.188;2022-12-07T11:07:41;102034.88;;;5.43;60.51
60817;BME280;51921;51.518;-3.188;2022-12-07T11:10:04;102033.10;;;3.81;64.59
60817;BME280;51921;51.518;-3.188;2022-12-07T11:12:32;102034.74;;;4.76;62.62
60817;BME280;51921;51.518;-3.188;2022-12-07T11:14:54;102032.71;;;3.24;66.21
60817;BME280;51921;51.518;-3.188;2022-12-07T11:17:18;102032.21;;;5.33;63.09
60817;BME280;51921;51.518;-3.188;2022-12-07T11:19:48;102027.21;;;5.36;62.53
60817;BME280;51921;51.518;-3.188;2022-12-07T11:22:10;102022.76;;;5.28;62.74
60817;BME280;51921;51.518;-3.188;2022-12-07T11:24:35;102021.92;;;5.72;61.72
60817;BME280;51921;51.518;-3.188;2022-12-07T11:27:04;102018.40;;;5.78;61.08
60817;BME280;51921;51.518;-3.188;2022-12-07T11:29:32;102014.49;;;4.49;62.12
60817;BME280;51921;51.518;-3.188;2022-12-07T11:31:56;102004.90;;;3.61;64.94
60817;BME280;51921;51.518;-3.188;2022-12-07T11:34:18;101994.82;;;4.55;61.99
60817;BME280;51921;51.518;-3.188;2022-12-07T11:36:40;101985.80;;;3.60;65.32
60817;BME280;51921;51.518;-3.188;2022-12-07T11:39:07;101982.36;;;1.63;72.21
60817;BME280;51921;51.518;-3.188;2022-12-07T11:41:33;101982.42;;;1.04;78.56
60817;BME280;51921;51.518;-3.188;2022-12-07T11:43:58;101986.35;;;1.03;85.80
60817;BME280;51921;51.518;-3.188;2022-12-07T11:46:20;101982.14;;;1.77;80.06
60817;BME280;51921;51.518;-3.188;2022-12-07T11:48:49;101982.93;;;3.07;72.97
60817;BME280;51921;51.518;-3.188;2022-12-07T11:51:12;101978.12;;;1.29;82.04
60817;BME280;51921;51.518;-3.188;2022-12-07T11:53:39;101971.58;;;2.45;78.43
60817;BME280;51921;51.518;-3.188;2022-12-07T11:56:07;101962.92;;;2.77;75.32
60817;BME280;51921;51.518;-3.188;2022-12-07T11:58:37;101961.90;;;1.26;80.41
60817;BME280;51921;51.518;-3.188;2022-12-07T12:01:01;101959.60;;;2.15;79.39
60817;BME280;51921;51.518;-3.188;2022-12-07T12:03:25;101957.04;;;2.80;77.00
60817;BME280;51921;51.518;-3.188;2022-12-07T12:05:44;101957.49;;;3.87;70.54
60817;BME280;51921;51.518;-3.188;2022-12-07T12:08:15;101950.50;;;4.16;68.83
60817;BME280;51921;51.518;-3.188;2022-12-07T12:10:45;101937.49;;;4.99;65.25
60817;BME280;51921;51.518;-3.188;2022-12-07T12:13:13;101936.01;;;6.52;60.29
60817;BME280;51921;51.518;-3.188;2022-12-07T12:15:37;101931.68;;;5.63;59.21
60817;BME280;51921;51.518;-3.188;2022-12-07T12:18:14;101929.47;;;6.78;57.61
60817;BME280;51921;51.518;-3.188;2022-12-07T12:20:22;101928.49;;;6.62;57.31
60817;BME280;51921;51.518;-3.188;2022-12-07T12:22:46;101928.89;;;3.40;60.57
60817;BME280;51921;51.518;-3.188;2022-12-07T12:25:18;101925.28;;;5.05;58.97
60817;BME280;51921;51.518;-3.188;2022-12-07T12:27:36;101927.50;;;4.20;61.99
60817;BME280;51921;51.518;-3.188;2022-12-07T12:30:03;101919.64;;;5.21;63.63
60817;BME280;51921;51.518;-3.188;2022-12-07T12:32:36;101912.59;;;5.90;60.89
60817;BME280;51921;51.518;-3.188;2022-12-07T12:34:58;101910.35;;;5.58;60.09
60817;BME280;51921;51.518;-3.188;2022-12-07T12:44:42;101907.96;;;5.49;60.58
60817;BME280;51921;51.518;-3.188;2022-12-07T12:46:59;101902.08;;;5.45;61.34
60817;BME280;51921;51.518;-3.188;2022-12-07T12:49:34;101900.29;;;5.65;61.11
60817;BME280;51921;51.518;-3.188;2022-12-07T12:51:50;101897.67;;;5.04;62.90
60817;BME280;51921;51.518;-3.188;2022-12-07T12:54:19;101900.60;;;4.86;62.70
60817;BME280;51921;51.518;-3.188;2022-12-07T12:56:42;101900.25;;;4.16;64.22